sensor_id;sensor_type;location;lat;lon;timestamp;P1;durP1;ratioP1;P2;durP2;ratioP2
69161;SDS011;56269;51.738;21.652;2023-04-25T00:01:21;17.98;;;11.20;;
69161;SDS011;56269;51.738;21.652;2023-04-25T00:03:47;18.30;;;10.80;;
69161;SDS011;56269;51.738;21.652;2023-04-25T00:06:14;19.88;;;11.23;;
69161;SDS011;56269;51.738;21.652;2023-04-25T00:08:41;19.48;;;11.75;;
69161;SDS011;56269;51.738;21.652;2023-04-25T00:11:07;18.98;;;11.20;;
69161;SDS011;56269;51.738;21.652;2023-04-25T00:13:33;21.27;;;11.53;;
69161;SDS011;56269;51.738;21.652;2023-04-25T00:15:59;18.42;;;11.27;;
69161;SDS011;56269;51.738;21.652;2023-04-25T00:18:25;19.38;;;11.52;;
69161;SDS011;56269;51.738;21.652;2023-04-25T00:20:54;17.63;;;10.90;;
69161;SDS011;56269;51.738;21.652;2023-04-25T00:23:21;20.15;;;11.40;;
69161;SDS011;56269;51.738;21.652;2023-04-25T00:25:48;18.23;;;10.77;;
69161;SDS011;56269;51.738;21.652;2023-04-25T00:28:15;19.30;;;10.77;;
69161;SDS011;56269;51.738;21.652;2023-04-25T00:30:42;18.63;;;10.18;;
69161;SDS011;56269;51.738;21.652;2023-04-25T00:33:08;17.83;;;10.05;;
69161;SDS011;56269;51.738;21.652;2023-04-25T00:35:35;18.83;;;10.73;;
69161;SDS011;56269;51.738;21.652;2023-04-25T00:38:01;18.87;;;10.20;;
69161;SDS011;56269;51.738;21.652;2023-04-25T00:40:28;18.00;;;10.93;;
69161;SDS011;56269;51.738;21.652;2023-04-25T00:42:54;18.48;;;10.50;;
69161;SDS011;56269;51.738;21.652;2023-04-25T00:45:20;19.10;;;10.18;;
69161;SDS011;56269;51.738;21.652;2023-04-25T00:47:46;18.02;;;10.13;;
69161;SDS011;56269;51.738;21.652;2023-04-25T00:50:13;16.83;;;9.67;;
69161;SDS011;56269;51.738;21.652;2023-04-25T00:52:40;19.55;;;10.15;;
69161;SDS011;56269;51.738;21.652;2023-04-25T00:55:09;16.92;;;9.75;;
69161;SDS011;56269;51.738;21.652;2023-04-25T00:57:37;17.50;;;10.32;;
69161;SDS011;56269;51.738;21.652;2023-04-25T01:00:05;19.27;;;10.38;;
69161;SDS011;56269;51.738;21.652;2023-04-25T01:02:32;18.80;;;9.90;;
69161;SDS011;56269;51.738;21.652;2023-04-25T01:05:01;16.10;;;9.48;;
69161;SDS011;56269;51.738;21.652;2023-04-25T01:07:28;17.50;;;10.13;;
69161;SDS011;56269;51.738;21.652;2023-04-25T01:09:56;21.48;;;11.20;;
69161;SDS011;56269;51.738;21.652;2023-04-25T01:12:22;20.92;;;11.10;;
69161;SDS011;56269;51.738;21.652;2023-04-25T01:14:49;21.10;;;10.57;;
69161;SDS011;56269;51.738;21.652;2023-04-25T01:17:15;20.42;;;11.13;;
69161;SDS011;56269;51.738;21.652;2023-04-25T01:19:43;19.83;;;10.73;;
69161;SDS011;56269;51.738;21.652;2023-04-25T01:22:11;19.77;;;11.13;;
69161;SDS011;56269;51.738;21.652;2023-04-25T01:24:37;23.42;;;11.65;;
69161;SDS011;56269;51.738;21.652;2023-04-25T01:27:04;17.80;;;10.63;;
69161;SDS011;56269;51.738;21.652;2023-04-25T01:29:31;19.10;;;10.63;;
69161;SDS011;56269;51.738;21.652;2023-04-25T01:31:58;18.80;;;10.65;;
69161;SDS011;56269;51.738;21.652;2023-04-25T01:34:25;18.45;;;10.80;;
69161;SDS011;56269;51.738;21.652;2023-04-25T01:36:51;18.48;;;10.93;;
69161;SDS011;56269;51.738;21.652;2023-04-25T01:39:18;19.93;;;11.00;;
69161;SDS011;56269;51.738;21.652;2023-04-25T01:41:45;20.75;;;11.52;;
69161;SDS011;56269;51.738;21.652;2023-04-25T01:44:13;21.08;;;11.70;;
69161;SDS011;56269;51.738;21.652;2023-04-25T01:46:40;20.25;;;12.02;;
69161;SDS011;56269;51.738;21.652;2023-04-25T01:49:06;21.92;;;11.95;;
69161;SDS011;56269;51.738;21.652;2023-04-25T01:51:33;21.67;;;11.70;;
69161;SDS011;56269;51.738;21.652;2023-04-25T01:54:00;21.38;;;12.23;;
69161;SDS011;56269;51.738;21.652;2023-04-25T01:56:29;22.55;;;12.80;;
69161;SDS011;56269;51.738;21.652;2023-04-25T01:58:57;23.23;;;12.25;;
69161;SDS011;56269;51.738;21.652;2023-04-25T02:01:23;21.20;;;12.18;;
69161;SDS011;56269;51.738;21.652;2023-04-25T02:03:50;22.33;;;12.57;;
69161;SDS011;56269;51.738;21.652;2023-04-25T02:06:16;22.67;;;10.90;;
69161;SDS011;56269;51.738;21.652;2023-04-25T02:08:42;23.60;;;12.73;;
69161;SDS011;56269;51.738;21.652;2023-04-25T02:11:08;22.90;;;12.88;;
69161;SDS011;56269;51.738;21.652;2023-04-25T02:13:34;23.33;;;12.90;;
69161;SDS011;56269;51.738;21.652;2023-04-25T02:16:00;22.73;;;13.07;;
69161;SDS011;56269;51.738;21.652;2023-04-25T02:18:27;25.38;;;13.07;;
69161;SDS011;56269;51.738;21.652;2023-04-25T02:20:53;24.13;;;13.35;;
69161;SDS011;56269;51.738;21.652;2023-04-25T02:23:20;22.38;;;13.05;;
69161;SDS011;56269;51.738;21.652;2023-04-25T02:25:46;24.23;;;12.67;;
69161;SDS011;56269;51.738;21.652;2023-04-25T02:28:12;24.50;;;13.27;;
69161;SDS011;56269;51.738;21.652;2023-04-25T02:30:39;23.35;;;12.88;;
69161;SDS011;56269;51.738;21.652;2023-04-25T02:33:05;23.30;;;12.93;;
69161;SDS011;56269;51.738;21.652;2023-04-25T02:35:31;24.40;;;13.68;;
69161;SDS011;56269;51.738;21.652;2023-04-25T02:37:58;22.07;;;12.40;;
69161;SDS011;56269;51.738;21.652;2023-04-25T02:40:24;26.70;;;13.75;;
69161;SDS011;56269;51.738;21.652;2023-04-25T02:42:50;22.83;;;12.68;;
69161;SDS011;56269;51.738;21.652;2023-04-25T02:45:16;22.55;;;12.88;;
69161;SDS011;56269;51.738;21.652;2023-04-25T02:47:43;26.53;;;13.77;;
69161;SDS011;56269;51.738;21.652;2023-04-25T02:50:09;26.48;;;14.70;;
69161;SDS011;56269;51.738;21.652;2023-04-25T02:52:36;24.80;;;14.02;;
69161;SDS011;56269;51.738;21.652;2023-04-25T02:55:02;28.25;;;14.82;;
69161;SDS011;56269;51.738;21.652;2023-04-25T02:57:29;25.40;;;14.10;;
69161;SDS011;56269;51.738;21.652;2023-04-25T02:59:55;26.00;;;14.60;;
69161;SDS011;56269;51.738;21.652;2023-04-25T03:02:21;25.92;;;13.65;;
69161;SDS011;56269;51.738;21.652;2023-04-25T03:04:47;25.23;;;10.60;;
69161;SDS011;56269;51.738;21.652;2023-04-25T03:07:13;26.38;;;12.38;;
69161;SDS011;56269;51.738;21.652;2023-04-25T03:09:39;25.33;;;13.73;;
69161;SDS011;56269;51.738;21.652;2023-04-25T03:12:06;22.80;;;12.65;;
69161;SDS011;56269;51.738;21.652;2023-04-25T03:14:32;24.65;;;13.23;;
69161;SDS011;56269;51.738;21.652;2023-04-25T03:16:58;23.17;;;12.45;;
69161;SDS011;56269;51.738;21.652;2023-04-25T03:19:24;27.17;;;13.98;;
69161;SDS011;56269;51.738;21.652;2023-04-25T03:21:51;23.97;;;12.60;;
69161;SDS011;56269;51.738;21.652;2023-04-25T03:24:17;25.30;;;12.32;;
69161;SDS011;56269;51.738;21.652;2023-04-25T03:26:43;19.90;;;9.20;;
69161;SDS011;56269;51.738;21.652;2023-04-25T03:29:09;19.33;;;10.13;;
69161;SDS011;56269;51.738;21.652;2023-04-25T03:31:36;25.27;;;12.77;;
69161;SDS011;56269;51.738;21.652;2023-04-25T03:34:02;24.88;;;12.07;;
69161;SDS011;56269;51.738;21.652;2023-04-25T03:36:28;22.20;;;10.68;;
69161;SDS011;56269;51.738;21.652;2023-04-25T03:38:54;25.67;;;11.82;;
69161;SDS011;56269;51.738;21.652;2023-04-25T03:41:20;24.50;;;13.10;;
69161;SDS011;56269;51.738;21.652;2023-04-25T03:43:46;19.33;;;9.03;;
69161;SDS011;56269;51.738;21.652;2023-04-25T03:46:13;24.45;;;11.32;;
69161;SDS011;56269;51.738;21.652;2023-04-25T03:48:39;23.77;;;11.40;;
69161;SDS011;56269;51.738;21.652;2023-04-25T03:51:05;22.50;;;11.38;;
69161;SDS011;56269;51.738;21.652;2023-04-25T03:53:31;23.35;;;12.35;;
69161;SDS011;56269;51.738;21.652;2023-04-25T03:55:58;24.57;;;12.50;;
69161;SDS011;56269;51.738;21.652;2023-04-25T03:58:23;23.65;;;10.98;;
69161;SDS011;56269;51.738;21.652;2023-04-25T04:00:50;22.35;;;11.77;;
69161;SDS011;56269;51.738;21.652;2023-04-25T04:03:16;22.55;;;12.10;;
69161;SDS011;56269;51.738;21.652;2023-04-25T04:05:42;25.25;;;13.02;;
69161;SDS011;56269;51.738;21.652;2023-04-25T04:08:08;26.83;;;13.43;;
69161;SDS011;56269;51.738;21.652;2023-04-25T04:10:34;23.25;;;12.43;;
69161;SDS011;56269;51.738;21.652;2023-04-25T04:13:00;24.67;;;12.50;;
69161;SDS011;56269;51.738;21.652;2023-04-25T04:15:27;24.63;;;13.15;;
69161;SDS011;56269;51.738;21.652;2023-04-25T04:17:53;24.98;;;12.50;;
69161;SDS011;56269;51.738;21.652;2023-04-25T04:20:20;24.50;;;11.70;;
69161;SDS011;56269;51.738;21.652;2023-04-25T04:22:46;24.83;;;12.80;;
69161;SDS011;56269;51.738;21.652;2023-04-25T04:25:13;24.88;;;13.27;;
69161;SDS011;56269;51.738;21.652;2023-04-25T04:27:39;26.00;;;11.63;;
69161;SDS011;56269;51.738;21.652;2023-04-25T04:30:06;25.73;;;13.18;;
69161;SDS011;56269;51.738;21.652;2023-04-25T04:32:32;26.03;;;12.53;;
69161;SDS011;56269;51.738;21.652;2023-04-25T04:35:00;20.38;;;10.25;;
69161;SDS011;56269;51.738;21.652;2023-04-25T04:37:26;26.10;;;13.52;;
69161;SDS011;56269;51.738;21.652;2023-04-25T04:39:52;21.70;;;9.82;;
69161;SDS011;56269;51.738;21.652;2023-04-25T04:42:18;26.93;;;13.40;;
69161;SDS011;56269;51.738;21.652;2023-04-25T04:44:45;27.45;;;14.35;;
69161;SDS011;56269;51.738;21.652;2023-04-25T04:47:11;23.70;;;12.52;;
69161;SDS011;56269;51.738;21.652;2023-04-25T04:49:39;22.65;;;12.52;;
69161;SDS011;56269;51.738;21.652;2023-04-25T04:52:05;22.13;;;10.75;;
69161;SDS011;56269;51.738;21.652;2023-04-25T04:54:32;21.57;;;10.90;;
69161;SDS011;56269;51.738;21.652;2023-04-25T04:56:59;23.67;;;10.85;;
69161;SDS011;56269;51.738;21.652;2023-04-25T04:59:25;25.08;;;12.75;;
69161;SDS011;56269;51.738;21.652;2023-04-25T05:01:52;21.02;;;10.02;;
69161;SDS011;56269;51.738;21.652;2023-04-25T05:04:18;22.25;;;11.55;;
69161;SDS011;56269;51.738;21.652;2023-04-25T05:06:44;22.67;;;11.20;;
69161;SDS011;56269;51.738;21.652;2023-04-25T05:09:11;21.27;;;10.18;;
69161;SDS011;56269;51.738;21.652;2023-04-25T05:11:37;19.30;;;9.23;;
69161;SDS011;56269;51.738;21.652;2023-04-25T05:14:03;19.13;;;8.63;;
69161;SDS011;56269;51.738;21.652;2023-04-25T05:16:29;16.08;;;7.63;;
69161;SDS011;56269;51.738;21.652;2023-04-25T05:18:55;15.00;;;7.60;;
69161;SDS011;56269;51.738;21.652;2023-04-25T05:21:21;19.42;;;9.50;;
69161;SDS011;56269;51.738;21.652;2023-04-25T05:23:48;18.08;;;8.30;;
69161;SDS011;56269;51.738;21.652;2023-04-25T05:26:14;16.30;;;7.65;;
69161;SDS011;56269;51.738;21.652;2023-04-25T05:28:41;9.57;;;4.68;;
69161;SDS011;56269;51.738;21.652;2023-04-25T05:31:08;17.97;;;7.53;;
69161;SDS011;56269;51.738;21.652;2023-04-25T05:33:36;13.65;;;6.75;;
69161;SDS011;56269;51.738;21.652;2023-04-25T05:36:02;15.73;;;6.95;;
69161;SDS011;56269;51.738;21.652;2023-04-25T05:38:28;13.65;;;6.20;;
69161;SDS011;56269;51.738;21.652;2023-04-25T05:40:55;10.27;;;4.82;;
69161;SDS011;56269;51.738;21.652;2023-04-25T05:43:21;16.07;;;7.80;;
69161;SDS011;56269;51.738;21.652;2023-04-25T05:45:47;11.30;;;4.88;;
69161;SDS011;56269;51.738;21.652;2023-04-25T05:48:13;8.75;;;4.72;;
69161;SDS011;56269;51.738;21.652;2023-04-25T05:50:39;13.60;;;5.90;;
69161;SDS011;56269;51.738;21.652;2023-04-25T05:53:06;14.00;;;6.97;;
69161;SDS011;56269;51.738;21.652;2023-04-25T05:55:32;11.63;;;5.13;;
69161;SDS011;56269;51.738;21.652;2023-04-25T05:57:58;10.52;;;4.40;;
69161;SDS011;56269;51.738;21.652;2023-04-25T06:00:24;9.68;;;4.70;;
69161;SDS011;56269;51.738;21.652;2023-04-25T06:02:50;15.88;;;8.15;;
69161;SDS011;56269;51.738;21.652;2023-04-25T06:05:16;11.70;;;5.70;;
69161;SDS011;56269;51.738;21.652;2023-04-25T06:07:43;15.63;;;6.30;;
69161;SDS011;56269;51.738;21.652;2023-04-25T06:10:10;17.08;;;8.55;;
69161;SDS011;56269;51.738;21.652;2023-04-25T06:12:36;14.68;;;7.80;;
69161;SDS011;56269;51.738;21.652;2023-04-25T06:15:04;12.93;;;6.32;;
69161;SDS011;56269;51.738;21.652;2023-04-25T06:17:31;9.17;;;4.40;;
69161;SDS011;56269;51.738;21.652;2023-04-25T06:19:57;12.98;;;6.22;;
69161;SDS011;56269;51.738;21.652;2023-04-25T06:22:23;16.33;;;7.93;;
69161;SDS011;56269;51.738;21.652;2023-04-25T06:24:49;12.70;;;6.47;;
69161;SDS011;56269;51.738;21.652;2023-04-25T06:27:16;14.88;;;7.18;;
69161;SDS011;56269;51.738;21.652;2023-04-25T06:29:42;11.70;;;6.07;;
69161;SDS011;56269;51.738;21.652;2023-04-25T06:32:08;14.32;;;6.30;;
69161;SDS011;56269;51.738;21.652;2023-04-25T06:34:34;14.20;;;7.15;;
69161;SDS011;56269;51.738;21.652;2023-04-25T06:37:00;13.15;;;6.07;;
69161;SDS011;56269;51.738;21.652;2023-04-25T06:39:26;8.85;;;3.60;;
69161;SDS011;56269;51.738;21.652;2023-04-25T06:41:53;14.40;;;7.03;;
69161;SDS011;56269;51.738;21.652;2023-04-25T06:44:19;13.48;;;6.18;;
69161;SDS011;56269;51.738;21.652;2023-04-25T06:46:45;13.77;;;7.15;;
69161;SDS011;56269;51.738;21.652;2023-04-25T06:49:11;12.68;;;6.22;;
69161;SDS011;56269;51.738;21.652;2023-04-25T06:51:37;9.55;;;4.10;;
69161;SDS011;56269;51.738;21.652;2023-04-25T06:54:03;9.53;;;4.20;;
69161;SDS011;56269;51.738;21.652;2023-04-25T06:56:31;11.20;;;6.18;;
69161;SDS011;56269;51.738;21.652;2023-04-25T06:58:57;10.65;;;4.45;;
69161;SDS011;56269;51.738;21.652;2023-04-25T07:01:26;12.70;;;7.22;;
69161;SDS011;56269;51.738;21.652;2023-04-25T07:03:52;14.63;;;6.97;;
69161;SDS011;56269;51.738;21.652;2023-04-25T07:06:18;8.68;;;4.15;;
69161;SDS011;56269;51.738;21.652;2023-04-25T07:08:45;9.25;;;4.38;;
69161;SDS011;56269;51.738;21.652;2023-04-25T07:11:11;11.02;;;5.60;;
69161;SDS011;56269;51.738;21.652;2023-04-25T07:13:37;10.10;;;4.45;;
69161;SDS011;56269;51.738;21.652;2023-04-25T07:16:04;8.23;;;3.60;;
69161;SDS011;56269;51.738;21.652;2023-04-25T07:18:30;10.95;;;5.65;;
69161;SDS011;56269;51.738;21.652;2023-04-25T07:20:57;11.20;;;6.07;;
69161;SDS011;56269;51.738;21.652;2023-04-25T07:23:23;8.85;;;3.70;;
69161;SDS011;56269;51.738;21.652;2023-04-25T07:25:49;9.85;;;4.50;;
69161;SDS011;56269;51.738;21.652;2023-04-25T07:28:15;9.03;;;4.57;;
69161;SDS011;56269;51.738;21.652;2023-04-25T07:30:41;11.85;;;6.25;;
69161;SDS011;56269;51.738;21.652;2023-04-25T07:33:07;12.15;;;5.65;;
69161;SDS011;56269;51.738;21.652;2023-04-25T07:35:33;10.73;;;6.03;;
69161;SDS011;56269;51.738;21.652;2023-04-25T07:38:01;11.68;;;6.38;;
69161;SDS011;56269;51.738;21.652;2023-04-25T07:40:28;10.40;;;4.67;;
69161;SDS011;56269;51.738;21.652;2023-04-25T07:42:55;13.07;;;5.88;;
69161;SDS011;56269;51.738;21.652;2023-04-25T07:45:21;11.48;;;5.50;;
69161;SDS011;56269;51.738;21.652;2023-04-25T07:47:48;10.55;;;5.32;;
69161;SDS011;56269;51.738;21.652;2023-04-25T07:50:15;8.50;;;4.07;;
69161;SDS011;56269;51.738;21.652;2023-04-25T07:52:41;10.00;;;5.10;;
69161;SDS011;56269;51.738;21.652;2023-04-25T07:55:08;9.40;;;4.60;;
69161;SDS011;56269;51.738;21.652;2023-04-25T07:57:34;7.80;;;3.40;;
69161;SDS011;56269;51.738;21.652;2023-04-25T08:00:01;7.90;;;3.38;;
69161;SDS011;56269;51.738;21.652;2023-04-25T08:02:27;9.07;;;3.15;;
69161;SDS011;56269;51.738;21.652;2023-04-25T08:04:54;6.63;;;3.00;;
69161;SDS011;56269;51.738;21.652;2023-04-25T08:07:20;8.02;;;3.53;;
69161;SDS011;56269;51.738;21.652;2023-04-25T08:09:46;11.90;;;5.65;;
69161;SDS011;56269;51.738;21.652;2023-04-25T08:12:12;10.43;;;5.15;;
69161;SDS011;56269;51.738;21.652;2023-04-25T08:14:39;10.48;;;5.20;;
69161;SDS011;56269;51.738;21.652;2023-04-25T08:17:05;7.27;;;3.63;;
69161;SDS011;56269;51.738;21.652;2023-04-25T08:19:31;8.15;;;4.07;;
69161;SDS011;56269;51.738;21.652;2023-04-25T08:21:57;9.57;;;4.75;;
69161;SDS011;56269;51.738;21.652;2023-04-25T08:24:24;8.38;;;4.03;;
69161;SDS011;56269;51.738;21.652;2023-04-25T08:26:50;9.10;;;4.35;;
69161;SDS011;56269;51.738;21.652;2023-04-25T08:29:17;8.03;;;3.83;;
69161;SDS011;56269;51.738;21.652;2023-04-25T08:31:43;8.90;;;4.47;;
69161;SDS011;56269;51.738;21.652;2023-04-25T08:34:10;6.25;;;2.80;;
69161;SDS011;56269;51.738;21.652;2023-04-25T08:36:36;6.57;;;3.05;;
69161;SDS011;56269;51.738;21.652;2023-04-25T08:39:03;8.40;;;3.35;;
69161;SDS011;56269;51.738;21.652;2023-04-25T08:41:29;9.37;;;4.27;;
69161;SDS011;56269;51.738;21.652;2023-04-25T08:43:56;8.43;;;3.63;;
69161;SDS011;56269;51.738;21.652;2023-04-25T08:46:24;8.80;;;4.40;;
69161;SDS011;56269;51.738;21.652;2023-04-25T08:48:51;18.27;;;3.72;;
69161;SDS011;56269;51.738;21.652;2023-04-25T08:51:23;7.13;;;2.83;;
69161;SDS011;56269;51.738;21.652;2023-04-25T08:53:53;9.30;;;4.57;;
69161;SDS011;56269;51.738;21.652;2023-04-25T08:56:20;8.82;;;3.83;;
69161;SDS011;56269;51.738;21.652;2023-04-25T08:58:48;7.43;;;3.63;;
69161;SDS011;56269;51.738;21.652;2023-04-25T09:01:17;7.75;;;3.58;;
69161;SDS011;56269;51.738;21.652;2023-04-25T09:03:44;6.38;;;2.80;;
69161;SDS011;56269;51.738;21.652;2023-04-25T09:06:10;7.60;;;3.03;;
69161;SDS011;56269;51.738;21.652;2023-04-25T09:08:39;11.07;;;5.25;;
69161;SDS011;56269;51.738;21.652;2023-04-25T09:11:09;7.28;;;3.38;;
69161;SDS011;56269;51.738;21.652;2023-04-25T09:13:35;8.05;;;3.90;;
69161;SDS011;56269;51.738;21.652;2023-04-25T09:16:01;8.80;;;4.15;;
69161;SDS011;56269;51.738;21.652;2023-04-25T09:18:34;8.97;;;3.93;;
69161;SDS011;56269;51.738;21.652;2023-04-25T09:21:07;7.47;;;3.45;;
69161;SDS011;56269;51.738;21.652;2023-04-25T09:23:44;8.15;;;3.58;;
69161;SDS011;56269;51.738;21.652;2023-04-25T09:26:15;6.45;;;3.03;;
69161;SDS011;56269;51.738;21.652;2023-04-25T09:28:42;11.55;;;5.57;;
69161;SDS011;56269;51.738;21.652;2023-04-25T09:31:12;9.60;;;4.20;;
69161;SDS011;56269;51.738;21.652;2023-04-25T09:33:38;9.98;;;4.50;;
69161;SDS011;56269;51.738;21.652;2023-04-25T09:36:07;12.75;;;6.18;;
69161;SDS011;56269;51.738;21.652;2023-04-25T09:38:40;13.23;;;6.10;;
69161;SDS011;56269;51.738;21.652;2023-04-25T09:41:10;8.15;;;3.83;;
69161;SDS011;56269;51.738;21.652;2023-04-25T09:43:39;9.17;;;4.43;;
69161;SDS011;56269;51.738;21.652;2023-04-25T09:46:08;12.73;;;6.97;;
69161;SDS011;56269;51.738;21.652;2023-04-25T09:48:36;8.95;;;4.20;;
69161;SDS011;56269;51.738;21.652;2023-04-25T09:51:10;7.15;;;3.15;;
69161;SDS011;56269;51.738;21.652;2023-04-25T09:53:43;12.20;;;6.90;;
69161;SDS011;56269;51.738;21.652;2023-04-25T09:56:12;8.30;;;3.80;;
69161;SDS011;56269;51.738;21.652;2023-04-25T09:58:40;8.50;;;3.97;;
69161;SDS011;56269;51.738;21.652;2023-04-25T10:01:07;7.80;;;3.88;;
69161;SDS011;56269;51.738;21.652;2023-04-25T10:03:35;8.40;;;3.75;;
69161;SDS011;56269;51.738;21.652;2023-04-25T10:06:08;11.07;;;4.28;;
69161;SDS011;56269;51.738;21.652;2023-04-25T10:08:38;8.50;;;3.60;;
69161;SDS011;56269;51.738;21.652;2023-04-25T10:11:06;7.95;;;3.63;;
69161;SDS011;56269;51.738;21.652;2023-04-25T10:13:34;8.40;;;4.28;;
69161;SDS011;56269;51.738;21.652;2023-04-25T10:16:02;7.88;;;3.42;;
69161;SDS011;56269;51.738;21.652;2023-04-25T10:18:30;6.03;;;2.95;;
69161;SDS011;56269;51.738;21.652;2023-04-25T10:21:01;9.67;;;4.07;;
69161;SDS011;56269;51.738;21.652;2023-04-25T10:23:29;6.78;;;2.80;;
69161;SDS011;56269;51.738;21.652;2023-04-25T10:25:57;8.88;;;4.05;;
69161;SDS011;56269;51.738;21.652;2023-04-25T10:28:24;8.10;;;3.95;;
69161;SDS011;56269;51.738;21.652;2023-04-25T10:31:03;8.32;;;4.05;;
69161;SDS011;56269;51.738;21.652;2023-04-25T10:33:33;10.07;;;4.70;;
69161;SDS011;56269;51.738;21.652;2023-04-25T10:36:13;8.48;;;3.60;;
69161;SDS011;56269;51.738;21.652;2023-04-25T10:38:45;7.75;;;3.58;;
69161;SDS011;56269;51.738;21.652;2023-04-25T10:41:13;7.00;;;3.50;;
69161;SDS011;56269;51.738;21.652;2023-04-25T10:43:44;8.18;;;3.17;;
69161;SDS011;56269;51.738;21.652;2023-04-25T10:48:56;9.55;;;3.75;;
69161;SDS011;56269;51.738;21.652;2023-04-25T10:51:27;9.93;;;4.47;;
69161;SDS011;56269;51.738;21.652;2023-04-25T10:54:01;8.63;;;3.75;;
69161;SDS011;56269;51.738;21.652;2023-04-25T10:56:38;8.48;;;4.32;;
69161;SDS011;56269;51.738;21.652;2023-04-25T10:59:10;9.33;;;3.97;;
69161;SDS011;56269;51.738;21.652;2023-04-25T11:01:42;8.88;;;4.03;;
69161;SDS011;56269;51.738;21.652;2023-04-25T11:04:22;7.55;;;3.08;;
69161;SDS011;56269;51.738;21.652;2023-04-25T11:09:24;8.55;;;4.15;;
69161;SDS011;56269;51.738;21.652;2023-04-25T11:11:54;9.07;;;4.50;;
69161;SDS011;56269;51.738;21.652;2023-04-25T11:14:21;9.15;;;4.20;;
69161;SDS011;56269;51.738;21.652;2023-04-25T11:16:52;10.65;;;4.43;;
69161;SDS011;56269;51.738;21.652;2023-04-25T11:19:25;12.60;;;5.88;;
69161;SDS011;56269;51.738;21.652;2023-04-25T11:21:59;11.32;;;6.00;;
69161;SDS011;56269;51.738;21.652;2023-04-25T11:24:30;8.37;;;4.23;;
69161;SDS011;56269;51.738;21.652;2023-04-25T11:27:02;10.38;;;5.13;;
69161;SDS011;56269;51.738;21.652;2023-04-25T11:29:30;11.55;;;5.50;;
69161;SDS011;56269;51.738;21.652;2023-04-25T11:32:00;11.77;;;5.88;;
69161;SDS011;56269;51.738;21.652;2023-04-25T11:34:28;12.43;;;5.38;;
69161;SDS011;56269;51.738;21.652;2023-04-25T11:36:58;9.17;;;3.87;;
69161;SDS011;56269;51.738;21.652;2023-04-25T11:39:25;9.60;;;4.45;;
69161;SDS011;56269;51.738;21.652;2023-04-25T11:41:52;11.95;;;6.10;;
69161;SDS011;56269;51.738;21.652;2023-04-25T11:44:20;12.23;;;5.30;;
69161;SDS011;56269;51.738;21.652;2023-04-25T11:46:47;10.27;;;4.70;;
69161;SDS011;56269;51.738;21.652;2023-04-25T11:49:14;12.23;;;5.47;;
69161;SDS011;56269;51.738;21.652;2023-04-25T11:51:44;11.45;;;5.60;;
69161;SDS011;56269;51.738;21.652;2023-04-25T11:54:12;11.25;;;5.53;;
69161;SDS011;56269;51.738;21.652;2023-04-25T11:56:45;14.90;;;9.07;;
69161;SDS011;56269;51.738;21.652;2023-04-25T11:59:12;12.35;;;6.20;;
69161;SDS011;56269;51.738;21.652;2023-04-25T12:01:40;13.70;;;7.00;;
69161;SDS011;56269;51.738;21.652;2023-04-25T12:04:16;16.45;;;8.00;;
69161;SDS011;56269;51.738;21.652;2023-04-25T12:06:48;15.63;;;6.68;;
69161;SDS011;56269;51.738;21.652;2023-04-25T12:09:17;11.60;;;5.50;;
69161;SDS011;56269;51.738;21.652;2023-04-25T12:11:56;13.10;;;6.40;;
69161;SDS011;56269;51.738;21.652;2023-04-25T12:14:24;9.17;;;4.50;;
69161;SDS011;56269;51.738;21.652;2023-04-25T12:16:54;13.05;;;6.03;;
69161;SDS011;56269;51.738;21.652;2023-04-25T12:19:25;12.50;;;5.82;;
69161;SDS011;56269;51.738;21.652;2023-04-25T12:21:52;11.05;;;4.85;;
69161;SDS011;56269;51.738;21.652;2023-04-25T12:24:23;11.35;;;5.82;;
69161;SDS011;56269;51.738;21.652;2023-04-25T12:26:59;12.37;;;6.03;;
69161;SDS011;56269;51.738;21.652;2023-04-25T12:29:28;14.02;;;5.95;;
69161;SDS011;56269;51.738;21.652;2023-04-25T12:31:56;10.15;;;5.10;;
69161;SDS011;56269;51.738;21.652;2023-04-25T12:34:23;13.60;;;6.10;;
69161;SDS011;56269;51.738;21.652;2023-04-25T12:36:49;16.38;;;8.15;;
69161;SDS011;56269;51.738;21.652;2023-04-25T12:39:18;10.83;;;4.97;;
69161;SDS011;56269;51.738;21.652;2023-04-25T12:41:49;16.05;;;7.25;;
69161;SDS011;56269;51.738;21.652;2023-04-25T12:44:16;13.88;;;5.60;;
69161;SDS011;56269;51.738;21.652;2023-04-25T12:46:42;12.05;;;5.82;;
69161;SDS011;56269;51.738;21.652;2023-04-25T12:49:09;14.23;;;5.95;;
69161;SDS011;56269;51.738;21.652;2023-04-25T12:51:35;14.03;;;7.00;;
69161;SDS011;56269;51.738;21.652;2023-04-25T12:54:03;9.70;;;4.97;;
69161;SDS011;56269;51.738;21.652;2023-04-25T12:56:30;11.93;;;5.60;;
69161;SDS011;56269;51.738;21.652;2023-04-25T12:58:57;15.80;;;8.23;;
69161;SDS011;56269;51.738;21.652;2023-04-25T13:01:24;9.30;;;4.47;;
69161;SDS011;56269;51.738;21.652;2023-04-25T13:03:50;17.20;;;8.67;;
69161;SDS011;56269;51.738;21.652;2023-04-25T13:06:17;15.35;;;7.97;;
69161;SDS011;56269;51.738;21.652;2023-04-25T13:08:44;17.77;;;7.93;;
69161;SDS011;56269;51.738;21.652;2023-04-25T13:11:10;11.07;;;4.53;;
69161;SDS011;56269;51.738;21.652;2023-04-25T13:13:37;18.65;;;7.65;;
69161;SDS011;56269;51.738;21.652;2023-04-25T13:16:04;19.73;;;9.43;;
69161;SDS011;56269;51.738;21.652;2023-04-25T13:18:31;18.25;;;8.65;;
69161;SDS011;56269;51.738;21.652;2023-04-25T13:20:57;17.17;;;7.90;;
69161;SDS011;56269;51.738;21.652;2023-04-25T13:23:26;14.30;;;7.20;;
69161;SDS011;56269;51.738;21.652;2023-04-25T13:25:53;15.90;;;7.57;;
69161;SDS011;56269;51.738;21.652;2023-04-25T13:28:21;10.13;;;5.13;;
69161;SDS011;56269;51.738;21.652;2023-04-25T13:30:47;15.23;;;7.63;;
69161;SDS011;56269;51.738;21.652;2023-04-25T13:33:14;12.45;;;6.30;;
69161;SDS011;56269;51.738;21.652;2023-04-25T13:35:40;15.15;;;6.95;;
69161;SDS011;56269;51.738;21.652;2023-04-25T13:38:08;14.50;;;7.00;;
69161;SDS011;56269;51.738;21.652;2023-04-25T13:40:34;12.03;;;5.50;;
69161;SDS011;56269;51.738;21.652;2023-04-25T13:43:01;15.95;;;8.85;;
69161;SDS011;56269;51.738;21.652;2023-04-25T13:45:27;11.18;;;5.13;;
69161;SDS011;56269;51.738;21.652;2023-04-25T13:47:54;10.60;;;5.03;;
69161;SDS011;56269;51.738;21.652;2023-04-25T13:50:20;8.10;;;4.20;;
69161;SDS011;56269;51.738;21.652;2023-04-25T13:52:46;9.93;;;4.50;;
69161;SDS011;56269;51.738;21.652;2023-04-25T13:55:12;10.95;;;5.30;;
69161;SDS011;56269;51.738;21.652;2023-04-25T13:57:38;9.23;;;4.55;;
69161;SDS011;56269;51.738;21.652;2023-04-25T14:00:05;10.93;;;5.47;;
69161;SDS011;56269;51.738;21.652;2023-04-25T14:02:35;14.32;;;6.93;;
69161;SDS011;56269;51.738;21.652;2023-04-25T14:05:01;10.60;;;5.17;;
69161;SDS011;56269;51.738;21.652;2023-04-25T14:07:29;7.88;;;3.60;;
69161;SDS011;56269;51.738;21.652;2023-04-25T14:09:55;11.30;;;5.93;;
69161;SDS011;56269;51.738;21.652;2023-04-25T14:12:25;11.13;;;4.43;;
69161;SDS011;56269;51.738;21.652;2023-04-25T14:14:51;10.88;;;4.90;;
69161;SDS011;56269;51.738;21.652;2023-04-25T14:17:20;9.07;;;4.07;;
69161;SDS011;56269;51.738;21.652;2023-04-25T14:19:47;9.15;;;4.22;;
69161;SDS011;56269;51.738;21.652;2023-04-25T14:22:14;7.88;;;3.75;;
69161;SDS011;56269;51.738;21.652;2023-04-25T14:24:43;8.48;;;3.78;;
69161;SDS011;56269;51.738;21.652;2023-04-25T14:27:09;7.45;;;3.88;;